sensor_id;sensor_type;location;lat;lon;timestamp;temperature;humidity
60848;DHT22;46681;47.696;9.140;2023-04-06T00:00:14;9.10;40.60
60848;DHT22;46681;47.696;9.140;2023-04-06T00:02:46;9.10;40.70
60848;DHT22;46681;47.696;9.140;2023-04-06T00:05:13;9.10;40.70
60848;DHT22;46681;47.696;9.140;2023-04-06T00:07:40;9.10;40.80
60848;DHT22;46681;47.696;9.140;2023-04-06T00:10:06;9.10;40.80
60848;DHT22;46681;47.696;9.140;2023-04-06T00:12:32;9.00;40.80
60848;DHT22;46681;47.696;9.140;2023-04-06T00:15:01;9.00;40.70
60848;DHT22;46681;47.696;9.140;2023-04-06T00:17:26;9.00;40.70
60848;DHT22;46681;47.696;9.140;2023-04-06T00:19:52;9.00;40.80
60848;DHT22;46681;47.696;9.140;2023-04-06T00:22:23;9.00;40.80
60848;DHT22;46681;47.696;9.140;2023-04-06T00:24:51;8.90;40.80
60848;DHT22;46681;47.696;9.140;2023-04-06T00:27:19;8.90;40.80
60848;DHT22;46681;47.696;9.140;2023-04-06T00:29:44;8.90;40.90
60848;DHT22;46681;47.696;9.140;2023-04-06T00:32:10;8.90;40.90
60848;DHT22;46681;47.696;9.140;2023-04-06T00:34:36;8.80;41.00
60848;DHT22;46681;47.696;9.140;2023-04-06T00:37:18;8.80;40.90
60848;DHT22;46681;47.696;9.140;2023-04-06T00:39:45;8.80;40.90
60848;DHT22;46681;47.696;9.140;2023-04-06T00:42:14;8.80;41.00
60848;DHT22;46681;47.696;9.140;2023-04-06T00:44:43;8.80;40.90
60848;DHT22;46681;47.696;9.140;2023-04-06T00:47:12;8.80;41.00
60848;DHT22;46681;47.696;9.140;2023-04-06T00:49:39;8.80;41.10
60848;DHT22;46681;47.696;9.140;2023-04-06T00:52:08;8.70;41.00
60848;DHT22;46681;47.696;9.140;2023-04-06T00:54:34;8.70;41.10
60848;DHT22;46681;47.696;9.140;2023-04-06T00:57:03;8.70;41.00
60848;DHT22;46681;47.696;9.140;2023-04-06T00:59:28;8.70;41.10
60848;DHT22;46681;47.696;9.140;2023-04-06T01:01:54;8.70;41.10
60848;DHT22;46681;47.696;9.140;2023-04-06T01:04:20;8.60;41.00
60848;DHT22;46681;47.696;9.140;2023-04-06T01:06:46;8.60;41.20
60848;DHT22;46681;47.696;9.140;2023-04-06T01:09:12;8.60;41.20
60848;DHT22;46681;47.696;9.140;2023-04-06T01:11:42;8.60;41.20
60848;DHT22;46681;47.696;9.140;2023-04-06T01:14:17;8.60;41.20
60848;DHT22;46681;47.696;9.140;2023-04-06T01:16:42;8.60;41.20
60848;DHT22;46681;47.696;9.140;2023-04-06T01:19:14;8.60;41.30
60848;DHT22;46681;47.696;9.140;2023-04-06T01:21:41;8.60;41.30
60848;DHT22;46681;47.696;9.140;2023-04-06T01:24:17;8.60;41.30
60848;DHT22;46681;47.696;9.140;2023-04-06T01:26:43;8.50;41.30
60848;DHT22;46681;47.696;9.140;2023-04-06T01:29:12;8.50;41.30
60848;DHT22;46681;47.696;9.140;2023-04-06T01:31:39;8.50;41.40
60848;DHT22;46681;47.696;9.140;2023-04-06T01:34:05;8.50;41.30
60848;DHT22;46681;47.696;9.140;2023-04-06T01:39:34;8.50;41.40
60848;DHT22;46681;47.696;9.140;2023-04-06T01:41:59;8.40;41.30
60848;DHT22;46681;47.696;9.140;2023-04-06T01:44:31;8.40;41.40
60848;DHT22;46681;47.696;9.140;2023-04-06T01:46:56;8.40;41.50
60848;DHT22;46681;47.696;9.140;2023-04-06T01:49:29;8.40;41.40
60848;DHT22;46681;47.696;9.140;2023-04-06T01:51:54;8.40;41.50
60848;DHT22;46681;47.696;9.140;2023-04-06T01:54:20;8.30;41.40
60848;DHT22;46681;47.696;9.140;2023-04-06T01:56:45;8.30;41.50
60848;DHT22;46681;47.696;9.140;2023-04-06T01:59:13;8.40;41.60
60848;DHT22;46681;47.696;9.140;2023-04-06T02:01:38;8.30;41.50
60848;DHT22;46681;47.696;9.140;2023-04-06T02:04:14;8.30;41.50
60848;DHT22;46681;47.696;9.140;2023-04-06T02:06:42;8.30;41.60
60848;DHT22;46681;47.696;9.140;2023-04-06T02:09:12;8.30;41.60
60848;DHT22;46681;47.696;9.140;2023-04-06T02:11:38;8.30;41.50
60848;DHT22;46681;47.696;9.140;2023-04-06T02:14:03;8.20;41.60
60848;DHT22;46681;47.696;9.140;2023-04-06T02:16:29;8.20;41.50
60848;DHT22;46681;47.696;9.140;2023-04-06T02:18:57;8.20;41.60
60848;DHT22;46681;47.696;9.140;2023-04-06T02:21:23;8.20;41.50
60848;DHT22;46681;47.696;9.140;2023-04-06T02:23:50;8.20;41.70
60848;DHT22;46681;47.696;9.140;2023-04-06T02:26:16;8.20;41.60
60848;DHT22;46681;47.696;9.140;2023-04-06T02:28:42;8.20;41.70
60848;DHT22;46681;47.696;9.140;2023-04-06T02:31:08;8.20;41.60
60848;DHT22;46681;47.696;9.140;2023-04-06T02:33:33;8.20;41.60
60848;DHT22;46681;47.696;9.140;2023-04-06T02:36:04;8.10;41.60
60848;DHT22;46681;47.696;9.140;2023-04-06T02:38:32;8.10;41.70
60848;DHT22;46681;47.696;9.140;2023-04-06T02:40:59;8.10;41.60
60848;DHT22;46681;47.696;9.140;2023-04-06T02:43:26;8.10;41.70
60848;DHT22;46681;47.696;9.140;2023-04-06T02:45:51;8.10;41.70
60848;DHT22;46681;47.696;9.140;2023-04-06T02:48:23;8.00;41.70
60848;DHT22;46681;47.696;9.140;2023-04-06T02:50:50;8.00;41.70
60848;DHT22;46681;47.696;9.140;2023-04-06T02:53:22;8.00;41.70
60848;DHT22;46681;47.696;9.140;2023-04-06T02:55:49;8.00;41.70
60848;DHT22;46681;47.696;9.140;2023-04-06T02:58:35;8.00;41.70
60848;DHT22;46681;47.696;9.140;2023-04-06T03:01:01;8.00;41.80
60848;DHT22;46681;47.696;9.140;2023-04-06T03:03:31;8.00;41.80
60848;DHT22;46681;47.696;9.140;2023-04-06T03:05:57;8.00;41.80
60848;DHT22;46681;47.696;9.140;2023-04-06T03:08:30;8.00;41.70
60848;DHT22;46681;47.696;9.140;2023-04-06T03:11:00;8.00;41.80
60848;DHT22;46681;47.696;9.140;2023-04-06T03:13:29;8.00;41.90
60848;DHT22;46681;47.696;9.140;2023-04-06T03:15:58;8.00;41.80
60848;DHT22;46681;47.696;9.140;2023-04-06T03:18:27;8.00;41.70
60848;DHT22;46681;47.696;9.140;2023-04-06T03:20:53;8.00;41.70
60848;DHT22;46681;47.696;9.140;2023-04-06T03:23:24;8.00;41.80
60848;DHT22;46681;47.696;9.140;2023-04-06T03:25:49;8.00;41.70
60848;DHT22;46681;47.696;9.140;2023-04-06T03:28:24;8.00;41.70
60848;DHT22;46681;47.696;9.140;2023-04-06T03:30:57;8.00;41.70
60848;DHT22;46681;47.696;9.140;2023-04-06T03:33:31;8.00;41.70
60848;DHT22;46681;47.696;9.140;2023-04-06T03:36:03;8.00;41.70
60848;DHT22;46681;47.696;9.140;2023-04-06T03:38:35;8.00;41.70
60848;DHT22;46681;47.696;9.140;2023-04-06T03:41:00;8.00;41.70
60848;DHT22;46681;47.696;9.140;2023-04-06T03:43:32;8.00;41.80
60848;DHT22;46681;47.696;9.140;2023-04-06T03:45:58;8.00;41.80
60848;DHT22;46681;47.696;9.140;2023-04-06T03:48:33;7.90;41.70
60848;DHT22;46681;47.696;9.140;2023-04-06T03:51:08;8.00;41.80
60848;DHT22;46681;47.696;9.140;2023-04-06T03:53:38;8.00;41.80
60848;DHT22;46681;47.696;9.140;2023-04-06T03:56:04;8.00;41.70
60848;DHT22;46681;47.696;9.140;2023-04-06T03:58:34;8.00;41.70
60848;DHT22;46681;47.696;9.140;2023-04-06T04:01:05;8.00;41.70
60848;DHT22;46681;47.696;9.140;2023-04-06T04:03:32;8.00;41.80
60848;DHT22;46681;47.696;9.140;2023-04-06T04:06:05;8.00;41.80
60848;DHT22;46681;47.696;9.140;2023-04-06T04:08:31;7.90;41.80
60848;DHT22;46681;47.696;9.140;2023-04-06T04:11:05;8.00;42.40
60848;DHT22;46681;47.696;9.140;2023-04-06T04:13:35;8.00;44.60
60848;DHT22;46681;47.696;9.140;2023-04-06T04:16:13;8.10;44.50
60848;DHT22;46681;47.696;9.140;2023-04-06T04:18:41;8.00;43.50
60848;DHT22;46681;47.696;9.140;2023-04-06T04:21:14;8.00;42.80
60848;DHT22;46681;47.696;9.140;2023-04-06T04:23:44;7.90;42.70
60848;DHT22;46681;47.696;9.140;2023-04-06T04:26:12;7.90;42.50
60848;DHT22;46681;47.696;9.140;2023-04-06T04:28:50;7.90;42.50
60848;DHT22;46681;47.696;9.140;2023-04-06T04:31:17;7.90;42.50
60848;DHT22;46681;47.696;9.140;2023-04-06T04:33:51;7.90;42.50
60848;DHT22;46681;47.696;9.140;2023-04-06T04:36:18;7.90;42.40
60848;DHT22;46681;47.696;9.140;2023-04-06T04:38:45;7.80;42.30
60848;DHT22;46681;47.696;9.140;2023-04-06T04:41:23;7.80;42.30
60848;DHT22;46681;47.696;9.140;2023-04-06T04:43:53;7.80;42.40
60848;DHT22;46681;47.696;9.140;2023-04-06T04:46:29;7.80;42.30
60848;DHT22;46681;47.696;9.140;2023-04-06T04:49:03;7.80;42.30
60848;DHT22;46681;47.696;9.140;2023-04-06T04:51:36;7.80;42.30
60848;DHT22;46681;47.696;9.140;2023-04-06T04:54:16;7.80;42.30
60848;DHT22;46681;47.696;9.140;2023-04-06T04:56:41;7.80;42.20
60848;DHT22;46681;47.696;9.140;2023-04-06T04:59:23;7.80;42.30
60848;DHT22;46681;47.696;9.140;2023-04-06T05:02:01;7.80;42.30
60848;DHT22;46681;47.696;9.140;2023-04-06T05:04:31;7.70;42.30
60848;DHT22;46681;47.696;9.140;2023-04-06T05:07:07;7.70;42.30
60848;DHT22;46681;47.696;9.140;2023-04-06T05:09:37;7.70;42.40
60848;DHT22;46681;47.696;9.140;2023-04-06T05:12:09;7.70;44.00
60848;DHT22;46681;47.696;9.140;2023-04-06T05:14:48;7.80;43.70
60848;DHT22;46681;47.696;9.140;2023-04-06T05:17:26;7.80;43.30
60848;DHT22;46681;47.696;9.140;2023-04-06T05:20:17;7.70;43.10
60848;DHT22;46681;47.696;9.140;2023-04-06T05:23:02;7.70;43.00
60848;DHT22;46681;47.696;9.140;2023-04-06T05:25:37;7.70;43.80
60848;DHT22;46681;47.696;9.140;2023-04-06T05:28:15;7.70;44.20
60848;DHT22;46681;47.696;9.140;2023-04-06T05:30:55;7.70;43.40
60848;DHT22;46681;47.696;9.140;2023-04-06T05:33:37;7.70;43.30
60848;DHT22;46681;47.696;9.140;2023-04-06T05:36:26;7.70;43.20
60848;DHT22;46681;47.696;9.140;2023-04-06T05:39:01;7.60;43.10
60848;DHT22;46681;47.696;9.140;2023-04-06T05:41:39;7.60;43.20
60848;DHT22;46681;47.696;9.140;2023-04-06T05:44:09;7.60;43.00
60848;DHT22;46681;47.696;9.140;2023-04-06T05:49:31;7.50;43.10
60848;DHT22;46681;47.696;9.140;2023-04-06T05:52:05;7.60;43.10
60848;DHT22;46681;47.696;9.140;2023-04-06T05:54:43;7.50;43.00
60848;DHT22;46681;47.696;9.140;2023-04-06T05:57:29;7.60;43.10
60848;DHT22;46681;47.696;9.140;2023-04-06T06:00:06;7.50;43.00
60848;DHT22;46681;47.696;9.140;2023-04-06T06:02:35;7.60;43.10
60848;DHT22;46681;47.696;9.140;2023-04-06T06:05:09;7.60;43.10
60848;DHT22;46681;47.696;9.140;2023-04-06T06:07:45;7.60;43.10
60848;DHT22;46681;47.696;9.140;2023-04-06T06:10:30;7.60;43.10
60848;DHT22;46681;47.696;9.140;2023-04-06T06:13:11;7.60;43.00
60848;DHT22;46681;47.696;9.140;2023-04-06T06:16:20;7.60;43.10
60848;DHT22;46681;47.696;9.140;2023-04-06T06:18:52;7.60;43.00
60848;DHT22;46681;47.696;9.140;2023-04-06T06:25:00;7.70;43.00
60848;DHT22;46681;47.696;9.140;2023-04-06T06:27:38;7.70;43.00
60848;DHT22;46681;47.696;9.140;2023-04-06T06:30:12;7.70;43.00
60848;DHT22;46681;47.696;9.140;2023-04-06T06:32:58;7.70;43.00
60848;DHT22;46681;47.696;9.140;2023-04-06T06:36:03;7.70;42.90
60848;DHT22;46681;47.696;9.140;2023-04-06T06:38:44;7.70;43.00
60848;DHT22;46681;47.696;9.140;2023-04-06T06:44:56;7.80;43.00
60848;DHT22;46681;47.696;9.140;2023-04-06T06:47:40;7.80;43.00
60848;DHT22;46681;47.696;9.140;2023-04-06T06:50:22;7.90;43.00
60848;DHT22;46681;47.696;9.140;2023-04-06T06:52:57;7.90;43.10
60848;DHT22;46681;47.696;9.140;2023-04-06T06:55:32;7.90;43.00
60848;DHT22;46681;47.696;9.140;2023-04-06T06:58:04;8.00;43.50
60848;DHT22;46681;47.696;9.140;2023-04-06T07:00:43;8.00;43.10
60848;DHT22;46681;47.696;9.140;2023-04-06T07:03:15;8.00;43.10
60848;DHT22;46681;47.696;9.140;2023-04-06T07:05:52;8.10;43.10
60848;DHT22;46681;47.696;9.140;2023-04-06T07:11:57;8.10;43.00
60848;DHT22;46681;47.696;9.140;2023-04-06T07:14:47;8.20;43.10
60848;DHT22;46681;47.696;9.140;2023-04-06T07:23:13;8.40;43.00
60848;DHT22;46681;47.696;9.140;2023-04-06T07:26:09;8.50;43.10
60848;DHT22;46681;47.696;9.140;2023-04-06T07:28:45;8.60;43.00
60848;DHT22;46681;47.696;9.140;2023-04-06T07:31:23;8.70;43.00
60848;DHT22;46681;47.696;9.140;2023-04-06T07:33:58;8.80;43.10
60848;DHT22;46681;47.696;9.140;2023-04-06T07:40:08;9.10;43.00
60848;DHT22;46681;47.696;9.140;2023-04-06T07:43:01;9.20;42.80
60848;DHT22;46681;47.696;9.140;2023-04-06T07:45:47;9.30;42.80
60848;DHT22;46681;47.696;9.140;2023-04-06T07:48:48;9.50;42.70
60848;DHT22;46681;47.696;9.140;2023-04-06T07:51:43;9.70;42.70
60848;DHT22;46681;47.696;9.140;2023-04-06T07:54:46;9.80;42.60
60848;DHT22;46681;47.696;9.140;2023-04-06T07:57:30;10.00;42.60
60848;DHT22;46681;47.696;9.140;2023-04-06T08:00:24;10.20;42.50
60848;DHT22;46681;47.696;9.140;2023-04-06T08:03:16;10.30;42.70
60848;DHT22;46681;47.696;9.140;2023-04-06T08:06:34;10.50;43.40
60848;DHT22;46681;47.696;9.140;2023-04-06T08:09:16;10.70;42.70
60848;DHT22;46681;47.696;9.140;2023-04-06T08:15:22;11.00;42.00
60848;DHT22;46681;47.696;9.140;2023-04-06T08:21:46;11.40;41.90
60848;DHT22;46681;47.696;9.140;2023-04-06T08:24:56;11.50;41.40
60848;DHT22;46681;47.696;9.140;2023-04-06T08:30:53;11.90;41.20
60848;DHT22;46681;47.696;9.140;2023-04-06T08:36:37;12.20;40.60
60848;DHT22;46681;47.696;9.140;2023-04-06T08:39:27;12.40;40.70
60848;DHT22;46681;47.696;9.140;2023-04-06T08:42:22;12.60;40.60
60848;DHT22;46681;47.696;9.140;2023-04-06T08:45:01;12.80;40.30
60848;DHT22;46681;47.696;9.140;2023-04-06T08:47:50;13.00;40.30
60848;DHT22;46681;47.696;9.140;2023-04-06T08:50:54;13.20;40.30
60848;DHT22;46681;47.696;9.140;2023-04-06T08:59:31;13.70;39.80
60848;DHT22;46681;47.696;9.140;2023-04-06T09:02:27;13.90;39.50
60848;DHT22;46681;47.696;9.140;2023-04-06T09:05:18;14.10;38.90
60848;DHT22;46681;47.696;9.140;2023-04-06T09:07:54;14.30;39.00
60848;DHT22;46681;47.696;9.140;2023-04-06T09:11:02;14.40;39.10
60848;DHT22;46681;47.696;9.140;2023-04-06T09:20:25;15.00;38.30
60848;DHT22;46681;47.696;9.140;2023-04-06T09:23:21;15.30;38.70
60848;DHT22;46681;47.696;9.140;2023-04-06T09:32:55;15.80;37.80
60848;DHT22;46681;47.696;9.140;2023-04-06T09:41:38;16.40;37.10
60848;DHT22;46681;47.696;9.140;2023-04-06T09:44:22;16.60;36.90
60848;DHT22;46681;47.696;9.140;2023-04-06T09:50:19;16.90;37.10
60848;DHT22;46681;47.696;9.140;2023-04-06T09:57:34;17.20;36.80
60848;DHT22;46681;47.696;9.140;2023-04-06T10:08:50;18.00;35.40
60848;DHT22;46681;47.696;9.140;2023-04-06T10:12:06;18.10;35.30
60848;DHT22;46681;47.696;9.140;2023-04-06T10:15:07;18.20;35.50
60848;DHT22;46681;47.696;9.140;2023-04-06T10:27:27;18.50;35.70
60848;DHT22;46681;47.696;9.140;2023-04-06T10:36:57;19.10;35.70
60848;DHT22;46681;47.696;9.140;2023-04-06T10:42:47;19.40;35.60
60848;DHT22;46681;47.696;9.140;2023-04-06T11:06:55;20.90;34.80
60848;DHT22;46681;47.696;9.140;2023-04-06T11:09:54;21.10;34.50
60848;DHT22;46681;47.696;9.140;2023-04-06T11:21:55;21.60;34.30
60848;DHT22;46681;47.696;9.140;2023-04-06T11:47:29;22.60;33.80
60848;DHT22;46681;47.696;9.140;2023-04-06T11:57:15;23.00;33.50
60848;DHT22;46681;47.696;9.140;2023-04-06T12:00:06;23.10;33.50
60848;DHT22;46681;47.696;9.140;2023-04-06T12:03:18;23.20;33.30
60848;DHT22;46681;47.696;9.140;2023-04-06T12:09:38;23.10;33.40
60848;DHT22;46681;47.696;9.140;2023-04-06T12:12:25;23.20;33.30
60848;DHT22;46681;47.696;9.140;2023-04-06T12:24:58;23.50;33.20
60848;DHT22;46681;47.696;9.140;2023-04-06T12:37:10;23.80;32.90
60848;DHT22;46681;47.696;9.140;2023-04-06T13:04:56;24.40;32.60
60848;DHT22;46681;47.696;9.140;2023-04-06T13:16:56;24.70;32.70
60848;DHT22;46681;47.696;9.140;2023-04-06T13:23:28;24.70;32.50
60848;DHT22;46681;47.696;9.140;2023-04-06T13:32:54;24.70;32.60
60848;DHT22;46681;47.696;9.140;2023-04-06T13:57:39;23.00;32.90
60848;DHT22;46681;47.696;9.140;2023-04-06T14:06:51;22.50;33.00
60848;DHT22;46681;47.696;9.140;2023-04-06T14:09:27;22.50;32.60
60848;DHT22;46681;47.696;9.140;2023-04-06T14:21:20;22.10;32.40
60848;DHT22;46681;47.696;9.140;2023-04-06T14:30:45;21.80;31.50
60848;DHT22;46681;47.696;9.140;2023-04-06T14:40:04;21.50;30.40
60848;DHT22;46681;47.696;9.140;2023-04-06T14:52:36;21.10;31.30
60848;DHT22;46681;47.696;9.140;2023-04-06T14:55:22;21.00;30.90
60848;DHT22;46681;47.696;9.140;2023-04-06T14:58:31;20.90;31.20
60848;DHT22;46681;47.696;9.140;2023-04-06T15:05:05;20.70;31.10
60848;DHT22;46681;47.696;9.140;2023-04-06T15:11:12;20.60;31.60
60848;DHT22;46681;47.696;9.140;2023-04-06T15:14:32;20.50;31.70
60848;DHT22;46681;47.696;9.140;2023-04-06T15:17:23;20.40;32.00
60848;DHT22;46681;47.696;9.140;2023-04-06T15:23:35;20.30;32.10
60848;DHT22;46681;47.696;9.140;2023-04-06T15:26:14;20.20;32.20
60848;DHT22;46681;47.696;9.140;2023-04-06T15:38:20;20.10;32.80
60848;DHT22;46681;47.696;9.140;2023-04-06T15:40:57;20.00;32.30
60848;DHT22;46681;47.696;9.140;2023-04-06T15:43:58;19.90;32.60
60848;DHT22;46681;47.696;9.140;2023-04-06T15:46:49;19.90;32.40
60848;DHT22;46681;47.696;9.140;2023-04-06T15:49:33;19.80;32.60
60848;DHT22;46681;47.696;9.140;2023-04-06T15:52:57;19.80;32.90
60848;DHT22;46681;47.696;9.140;2023-04-06T15:56:02;19.70;33.10
60848;DHT22;46681;47.696;9.140;2023-04-06T16:02:19;19.60;33.00
60848;DHT22;46681;47.696;9.140;2023-04-06T16:05:39;19.20;32.20
60848;DHT22;46681;47.696;9.140;2023-04-06T16:08:58;19.10;32.40
60848;DHT22;46681;47.696;9.140;2023-04-06T16:14:47;19.00;32.80
60848;DHT22;46681;47.696;9.140;2023-04-06T16:17:51;19.00;32.90
60848;DHT22;46681;47.696;9.140;2023-04-06T16:23:46;18.90;32.80
60848;DHT22;46681;47.696;9.140;2023-04-06T16:26:38;18.80;32.90
60848;DHT22;46681;47.696;9.140;2023-04-06T16:29:34;18.80;33.30
60848;DHT22;46681;47.696;9.140;2023-04-06T16:32:34;18.70;33.40
60848;DHT22;46681;47.696;9.140;2023-04-06T16:41:57;18.50;33.20
60848;DHT22;46681;47.696;9.140;2023-04-06T16:45:06;18.50;33.60
60848;DHT22;46681;47.696;9.140;2023-04-06T16:54:31;18.10;33.60
60848;DHT22;46681;47.696;9.140;2023-04-06T16:57:55;18.00;34.00
60848;DHT22;46681;47.696;9.140;2023-04-06T17:00:58;17.90;33.90
60848;DHT22;46681;47.696;9.140;2023-04-06T17:04:03;17.80;33.80
60848;DHT22;46681;47.696;9.140;2023-04-06T17:06:56;17.80;33.90
60848;DHT22;46681;47.696;9.140;2023-04-06T17:12:38;17.60;34.10
60848;DHT22;46681;47.696;9.140;2023-04-06T17:18:33;17.50;34.40
60848;DHT22;46681;47.696;9.140;2023-04-06T17:21:41;17.40;34.70
60848;DHT22;46681;47.696;9.140;2023-04-06T17:24:13;17.40;34.50
60848;DHT22;46681;47.696;9.140;2023-04-06T17:27:36;17.30;34.70
60848;DHT22;46681;47.696;9.140;2023-04-06T17:30:23;17.20;34.80
60848;DHT22;46681;47.696;9.140;2023-04-06T17:33:11;17.10;35.00
60848;DHT22;46681;47.696;9.140;2023-04-06T17:35:51;17.10;35.10
60848;DHT22;46681;47.696;9.140;2023-04-06T17:41:13;16.90;35.00
60848;DHT22;46681;47.696;9.140;2023-04-06T17:43:59;16.80;35.00
60848;DHT22;46681;47.696;9.140;2023-04-06T17:46:33;16.70;35.00
60848;DHT22;46681;47.696;9.140;2023-04-06T17:52:30;16.60;35.30
60848;DHT22;46681;47.696;9.140;2023-04-06T17:55:18;16.60;35.40
60848;DHT22;46681;47.696;9.140;2023-04-06T17:58:00;16.50;35.60
60848;DHT22;46681;47.696;9.140;2023-04-06T18:00:34;16.40;35.60
60848;DHT22;46681;47.696;9.140;2023-04-06T18:03:13;16.40;35.70
60848;DHT22;46681;47.696;9.140;2023-04-06T18:05:42;16.40;35.90
60848;DHT22;46681;47.696;9.140;2023-04-06T18:08:39;16.30;36.00
60848;DHT22;46681;47.696;9.140;2023-04-06T18:11:34;16.30;37.20
60848;DHT22;46681;47.696;9.140;2023-04-06T18:17:33;16.10;36.40
60848;DHT22;46681;47.696;9.140;2023-04-06T18:20:31;16.00;36.50
60848;DHT22;46681;47.696;9.140;2023-04-06T18:26:28;15.90;36.30
60848;DHT22;46681;47.696;9.140;2023-04-06T18:29:17;15.80;36.30
60848;DHT22;46681;47.696;9.140;2023-04-06T18:32:00;15.80;36.60
60848;DHT22;46681;47.696;9.140;2023-04-06T18:34:33;15.70;36.60
60848;DHT22;46681;47.696;9.140;2023-04-06T18:37:09;15.60;36.50
60848;DHT22;46681;47.696;9.140;2023-04-06T18:39:49;15.60;36.50
60848;DHT22;46681;47.696;9.140;2023-04-06T18:42:25;15.50;36.40
60848;DHT22;46681;47.696;9.140;2023-04-06T18:45:01;15.50;36.60
60848;DHT22;46681;47.696;9.140;2023-04-06T18:47:33;15.40;36.30
60848;DHT22;46681;47.696;9.140;2023-04-06T18:50:16;15.30;36.40
60848;DHT22;46681;47.696;9.140;2023-04-06T18:52:45;15.30;36.20
60848;DHT22;46681;47.696;9.140;2023-04-06T18:55:15;15.30;36.30
60848;DHT22;46681;47.696;9.140;2023-04-06T18:58:20;15.20;36.50
60848;DHT22;46681;47.696;9.140;2023-04-06T19:01:08;15.20;36.10
60848;DHT22;46681;47.696;9.140;2023-04-06T19:03:55;15.10;37.20
60848;DHT22;46681;47.696;9.140;2023-04-06T19:06:38;15.10;37.10
60848;DHT22;46681;47.696;9.140;2023-04-06T19:09:43;15.10;37.30
60848;DHT22;46681;47.696;9.140;2023-04-06T19:12:38;15.10;37.00
60848;DHT22;46681;47.696;9.140;2023-04-06T19:19:13;14.90;36.80
60848;DHT22;46681;47.696;9.140;2023-04-06T19:21:55;14.80;36.60
60848;DHT22;46681;47.696;9.140;2023-04-06T19:24:30;14.80;36.80
60848;DHT22;46681;47.696;9.140;2023-04-06T19:27:06;14.70;36.60
60848;DHT22;46681;47.696;9.140;2023-04-06T19:29:54;14.70;37.20
60848;DHT22;46681;47.696;9.140;2023-04-06T19:35:34;14.70;37.00
60848;DHT22;46681;47.696;9.140;2023-04-06T19:41:19;14.60;37.00
60848;DHT22;46681;47.696;9.140;2023-04-06T19:44:01;14.50;37.00
60848;DHT22;46681;47.696;9.140;2023-04-06T19:46:33;14.50;37.10
60848;DHT22;46681;47.696;9.140;2023-04-06T19:49:00;14.50;37.10
60848;DHT22;46681;47.696;9.140;2023-04-06T19:52:09;14.40;37.00
60848;DHT22;46681;47.696;9.140;2023-04-06T19:55:13;14.40;37.00
60848;DHT22;46681;47.696;9.140;2023-04-06T19:58:02;14.40;37.20
60848;DHT22;46681;47.696;9.140;2023-04-06T20:03:28;14.20;37.20
60848;DHT22;46681;47.696;9.140;2023-04-06T20:05:58;14.30;37.40
60848;DHT22;46681;47.696;9.140;2023-04-06T20:08:31;14.20;37.60
60848;DHT22;46681;47.696;9.140;2023-04-06T20:11:10;14.20;37.50
60848;DHT22;46681;47.696;9.140;2023-04-06T20:13:36;14.20;37.70
60848;DHT22;46681;47.696;9.140;2023-04-06T20:16:07;14.20;37.60
60848;DHT22;46681;47.696;9.140;2023-04-06T20:18:56;14.10;37.60
60848;DHT22;46681;47.696;9.140;2023-04-06T20:21:29;14.10;37.60
60848;DHT22;46681;47.696;9.140;2023-04-06T20:24:17;14.10;37.70
60848;DHT22;46681;47.696;9.140;2023-04-06T20:26:59;14.10;37.80
60848;DHT22;46681;47.696;9.140;2023-04-06T20:29:45;14.00;37.80
60848;DHT22;46681;47.696;9.140;2023-04-06T20:32:23;14.00;38.00
60848;DHT22;46681;47.696;9.140;2023-04-06T20:35:16;14.00;38.10
60848;DHT22;46681;47.696;9.140;2023-04-06T20:37:54;14.00;37.80
60848;DHT22;46681;47.696;9.140;2023-04-06T20:40:30;13.90;38.50
60848;DHT22;46681;47.696;9.140;2023-04-06T20:43:00;13.90;38.10
60848;DHT22;46681;47.696;9.140;2023-04-06T20:45:35;13.90;38.00
60848;DHT22;46681;47.696;9.140;2023-04-06T20:48:11;13.90;38.30
60848;DHT22;46681;47.696;9.140;2023-04-06T20:50:46;13.90;38.20
60848;DHT22;46681;47.696;9.140;2023-04-06T20:53:24;13.80;38.10
60848;DHT22;46681;47.696;9.140;2023-04-06T20:56:00;13.80;38.20
60848;DHT22;46681;47.696;9.140;2023-04-06T20:58:44;13.80;38.40
60848;DHT22;46681;47.696;9.140;2023-04-06T21:01:16;13.80;38.50
60848;DHT22;46681;47.696;9.140;2023-04-06T21:03:42;13.80;38.50
60848;DHT22;46681;47.696;9.140;2023-04-06T21:06:14;13.70;38.40
60848;DHT22;46681;47.696;9.140;2023-04-06T21:08:47;13.80;38.60
60848;DHT22;46681;47.696;9.140;2023-04-06T21:11:24;13.70;38.70
60848;DHT22;46681;47.696;9.140;2023-04-06T21:14:02;13.70;38.70
60848;DHT22;46681;47.696;9.140;2023-04-06T21:16:28;13.70;39.20
60848;DHT22;46681;47.696;9.140;2023-04-06T21:19:19;13.70;38.90
60848;DHT22;46681;47.696;9.140;2023-04-06T21:21:58;13.60;39.00
60848;DHT22;46681;47.696;9.140;2023-04-06T21:24:27;13.60;39.10
60848;DHT22;46681;47.696;9.140;2023-04-06T21:26:58;13.50;39.10
60848;DHT22;46681;47.696;9.140;2023-04-06T21:29:34;13.50;39.00
60848;DHT22;46681;47.696;9.140;2023-04-06T21:32:08;13.50;39.30
60848;DHT22;46681;47.696;9.140;2023-04-06T21:34:49;13.50;39.30
60848;DHT22;46681;47.696;9.140;2023-04-06T21:37:28;13.50;39.40
60848;DHT22;46681;47.696;9.140;2023-04-06T21:40:01;13.50;39.50
60848;DHT22;46681;47.696;9.140;2023-04-06T21:42:32;13.40;39.60
60848;DHT22;46681;47.696;9.140;2023-04-06T21:45:07;13.40;39.70
60848;DHT22;46681;47.696;9.140;2023-04-06T21:47:36;13.40;39.80
60848;DHT22;46681;47.696;9.140;2023-04-06T21:50:09;13.40;39.80
60848;DHT22;46681;47.696;9.140;2023-04-06T21:52:34;13.30;39.90
60848;DHT22;46681;47.696;9.140;2023-04-06T21:55:01;13.30;40.10
60848;DHT22;46681;47.696;9.140;2023-04-06T21:57:52;13.30;40.10
60848;DHT22;46681;47.696;9.140;2023-04-06T22:00:23;13.20;40.30
60848;DHT22;46681;47.696;9.140;2023-04-06T22:02:58;13.20;40.30
60848;DHT22;46681;47.696;9.140;2023-04-06T22:05:27;13.20;40.40
60848;DHT22;46681;47.696;9.140;2023-04-06T22:08:02;13.20;40.50
60848;DHT22;46681;47.696;9.140;2023-04-06T22:10:31;13.10;40.50
60848;DHT22;46681;47.696;9.140;2023-04-06T22:12:58;13.10;40.80
60848;DHT22;46681;47.696;9.140;2023-04-06T22:15:29;13.10;40.90
60848;DHT22;46681;47.696;9.140;2023-04-06T22:17:58;13.00;40.80
60848;DHT22;46681;47.696;9.140;2023-04-06T22:20:28;13.00;40.90
60848;DHT22;46681;47.696;9.140;2023-04-06T22:22:57;13.00;41.10
60848;DHT22;46681;47.696;9.140;2023-04-06T22:25:26;13.00;41.00
60848;DHT22;46681;47.696;9.140;2023-04-06T22:28:03;13.00;41.10
60848;DHT22;46681;47.696;9.140;2023-04-06T22:30:30;13.00;41.10
60848;DHT22;46681;47.696;9.140;2023-04-06T22:33:07;13.00;41.30
60848;DHT22;46681;47.696;9.140;2023-04-06T22:35:39;12.90;41.30
60848;DHT22;46681;47.696;9.140;2023-04-06T22:38:16;12.90;41.40
60848;DHT22;46681;47.696;9.140;2023-04-06T22:40:48;12.90;41.50
60848;DHT22;46681;47.696;9.140;2023-04-06T22:43:21;12.80;41.50
60848;DHT22;46681;47.696;9.140;2023-04-06T22:45:47;12.80;41.60
60848;DHT22;46681;47.696;9.140;2023-04-06T22:48:25;12.80;41.70
60848;DHT22;46681;47.696;9.140;2023-04-06T22:50:53;12.80;41.80
60848;DHT22;46681;47.696;9.140;2023-04-06T22:53:23;12.80;41.70